PSP weather

Palm Springs International Airport
Palm Springs, California, United States

Public forecast

Using degrees Fahrenheit for public forecast. Weather courtesy of forecast.io.

Current aviation weather report (METAR) for Palm Springs International Airport

Retrieved 2019/10/23 23:53 UTC (1 hour ago):

KPSP 232353Z 26003KT 10SM CLR 36/M04 A2982 RMK AO2 SLP093 T03611044 10372 20322 56010

Aviation forecast (TAF) for Palm Springs International Airport

Retrieved 2019-10-24 00:42 UTC (16 minutes ago):

TAF KPSP 232339Z 2400/2424 VRB05KT P6SM SKC FM241100 33011G20KT P6SM SKC WS015/01030KT FM241700 02015G28KT P6SM SKC